createdAt,value
2016-06-07T00:00:16.725Z,0
2016-06-07T00:01:16.728Z,0
2016-06-07T00:02:16.528Z,0
2016-06-07T00:03:16.687Z,0
2016-06-07T00:04:16.673Z,0
2016-06-07T00:05:16.677Z,0
2016-06-07T00:06:16.710Z,0
2016-06-07T00:07:16.635Z,0
2016-06-07T00:08:16.637Z,0
2016-06-07T00:09:16.624Z,0
2016-06-07T00:10:16.612Z,0
2016-06-07T00:11:16.443Z,0
2016-06-07T00:12:16.586Z,0
2016-06-07T00:13:16.573Z,0
2016-06-07T00:14:16.575Z,0
2016-06-07T00:15:16.578Z,0
2016-06-07T00:16:16.550Z,0
2016-06-07T00:17:16.553Z,0
2016-06-07T00:18:16.539Z,0
2016-06-07T00:19:16.526Z,0
2016-06-07T00:20:16.717Z,0
2016-06-07T00:21:17.282Z,0
2016-06-07T00:22:16.504Z,0
2016-06-07T00:23:16.490Z,0
2016-06-07T00:24:16.477Z,0
2016-06-07T00:25:16.464Z,0
2016-06-07T00:26:16.467Z,0
2016-06-07T00:27:16.438Z,0
2016-06-07T00:28:16.458Z,0
2016-06-07T00:29:16.273Z,0
2016-06-07T00:30:16.431Z,0
2016-06-07T00:31:16.402Z,0
2016-06-07T00:32:16.389Z,0
2016-06-07T00:33:16.392Z,0
2016-06-07T00:34:16.380Z,0
2016-06-07T00:35:16.366Z,0
2016-06-07T00:36:16.494Z,0
2016-06-07T00:37:16.340Z,0
2016-06-07T00:38:16.344Z,0
2016-06-07T00:39:16.330Z,0
2016-06-07T00:40:16.332Z,0
2016-06-07T00:41:16.320Z,0
2016-06-07T00:42:16.291Z,0
2016-06-07T00:43:16.294Z,0
2016-06-07T00:44:16.281Z,0
2016-06-07T00:45:16.268Z,0
2016-06-07T00:46:16.256Z,0
2016-06-07T00:47:16.243Z,0
2016-06-07T00:48:16.261Z,0
2016-06-07T00:49:16.232Z,0
2016-06-07T00:50:16.219Z,0
2016-06-07T00:51:16.862Z,0
2016-06-07T00:52:16.193Z,0
2016-06-07T00:53:16.181Z,0
2016-06-07T00:54:16.183Z,0
2016-06-07T00:55:16.170Z,0
2016-06-07T00:56:16.173Z,0
2016-06-07T00:57:16.145Z,0
2016-06-07T00:58:16.147Z,0
2016-06-07T00:59:16.134Z,0
2016-06-07T01:00:16.122Z,0
2016-06-07T01:01:16.124Z,0
2016-06-07T01:02:16.095Z,0
2016-06-07T01:03:16.083Z,0
2016-06-07T01:04:16.085Z,0
2016-06-07T01:05:16.072Z,0
2016-06-07T01:06:16.996Z,0
2016-06-07T01:07:16.046Z,0
2016-06-07T01:08:16.049Z,0
2016-06-07T01:09:16.036Z,0
2016-06-07T01:10:16.024Z,0
2016-06-07T01:11:16.010Z,0
2016-06-07T01:12:16.028Z,0
2016-06-07T01:13:15.984Z,0
2016-06-07T01:14:15.987Z,0
2016-06-07T01:15:15.959Z,0
2016-06-07T01:16:15.804Z,0
2016-06-07T01:17:15.948Z,0
2016-06-07T01:18:15.951Z,0
2016-06-07T01:19:16.125Z,0
2016-06-07T01:20:15.940Z,0
2016-06-07T01:21:16.506Z,0
2016-06-07T01:22:15.899Z,0
2016-06-07T01:23:15.886Z,0
2016-06-07T01:24:15.889Z,0
2016-06-07T01:25:15.875Z,0
2016-06-07T01:26:15.864Z,0
2016-06-07T01:27:15.850Z,0
2016-06-07T01:28:15.837Z,0
2016-06-07T01:29:15.839Z,0
2016-06-07T01:30:15.811Z,0
2016-06-07T01:31:15.830Z,0
2016-06-07T01:32:15.848Z,0
2016-06-07T01:33:15.788Z,0
2016-06-07T01:34:15.775Z,0
2016-06-07T01:35:15.762Z,0
2016-06-07T01:36:15.766Z,0
2016-06-07T01:37:15.752Z,0
2016-06-07T01:38:15.739Z,0
2016-06-07T01:39:15.726Z,0
2016-06-07T01:40:15.713Z,0
2016-06-07T01:41:15.544Z,0
2016-06-07T01:42:15.688Z,0
2016-06-07T01:43:15.690Z,0
2016-06-07T01:44:15.676Z,0
2016-06-07T01:45:15.648Z,0
2016-06-07T01:46:15.682Z,0
2016-06-07T01:47:15.637Z,0
2016-06-07T01:48:15.629Z,0
2016-06-07T01:49:15.631Z,0
2016-06-07T01:50:15.632Z,0
2016-06-07T01:51:15.791Z,0
2016-06-07T01:52:15.636Z,0
2016-06-07T01:53:15.652Z,0
2016-06-07T01:54:15.660Z,0
2016-06-07T01:55:15.481Z,0
2016-06-07T01:56:15.646Z,0
2016-06-07T01:57:15.481Z,0
2016-06-07T01:58:15.630Z,0
2016-06-07T01:59:15.618Z,0
2016-06-07T02:00:15.622Z,0
2016-06-07T02:01:15.596Z,0
2016-06-07T02:02:15.445Z,0
2016-06-07T02:03:15.589Z,0
2016-06-07T02:04:15.578Z,0
2016-06-07T02:05:15.566Z,0
2016-06-07T02:06:15.788Z,0
2016-06-07T02:07:15.416Z,0
2016-06-07T02:08:15.545Z,0
2016-06-07T02:09:15.532Z,0
2016-06-07T02:10:15.535Z,0
2016-06-07T02:11:15.521Z,0
2016-06-07T02:12:15.525Z,0
2016-06-07T02:13:15.497Z,0
2016-06-07T02:14:15.485Z,0
2016-06-07T02:15:15.471Z,0
2016-06-07T02:16:15.458Z,0
2016-06-07T02:17:15.445Z,0
2016-06-07T02:18:15.433Z,0
2016-06-07T02:19:15.435Z,0
2016-06-07T02:20:15.251Z,0
2016-06-07T02:21:15.299Z,0
2016-06-07T02:22:15.396Z,0
2016-06-07T02:23:15.384Z,0
2016-06-07T02:24:15.371Z,0
2016-06-07T02:25:15.357Z,0
2016-06-07T02:26:15.360Z,0
2016-06-07T02:27:15.348Z,0
2016-06-07T02:28:15.381Z,0
2016-06-07T02:29:15.306Z,0
2016-06-07T02:30:15.308Z,0
2016-06-07T02:31:15.295Z,0
2016-06-07T02:32:15.283Z,0
2016-06-07T02:33:15.286Z,0
2016-06-07T02:34:15.273Z,0
2016-06-07T02:35:15.259Z,0
2016-06-07T02:36:15.262Z,0
2016-06-07T02:37:15.483Z,4
2016-06-07T02:38:15.220Z,4
2016-06-07T02:39:15.223Z,4
2016-06-07T02:40:15.211Z,0
2016-06-07T02:41:15.182Z,0
2016-06-07T02:42:15.075Z,4
2016-06-07T02:43:15.172Z,4
2016-06-07T02:44:15.174Z,4
2016-06-07T02:45:15.161Z,4
2016-06-07T02:46:15.133Z,4
2016-06-07T02:47:15.135Z,8
2016-06-07T02:48:15.122Z,4
2016-06-07T02:49:15.140Z,8
2016-06-07T02:50:14.941Z,8
2016-06-07T02:51:15.694Z,12
2016-06-07T02:52:15.086Z,12
2016-06-07T02:53:15.058Z,12
2016-06-07T02:54:15.060Z,12
2016-06-07T02:55:15.048Z,16
2016-06-07T02:56:15.035Z,16
2016-06-07T02:57:15.021Z,20
2016-06-07T02:58:15.009Z,20
2016-06-07T02:59:14.996Z,24
2016-06-07T03:00:14.999Z,28
2016-06-07T03:01:14.829Z,32
2016-06-07T03:02:14.957Z,36
2016-06-07T03:03:14.959Z,36
2016-06-07T03:04:14.947Z,40
2016-06-07T03:05:14.793Z,44
2016-06-07T03:06:14.936Z,48
2016-06-07T03:07:15.095Z,52
2016-06-07T03:08:14.911Z,56
2016-06-07T03:09:14.898Z,64
2016-06-07T03:10:14.900Z,68
2016-06-07T03:11:14.934Z,72
2016-06-07T03:12:14.874Z,80
2016-06-07T03:13:14.689Z,84
2016-06-07T03:14:14.849Z,92
2016-06-07T03:15:14.819Z,96
2016-06-07T03:16:14.807Z,104
2016-06-07T03:17:14.810Z,112
2016-06-07T03:18:14.641Z,120
2016-06-07T03:19:14.785Z,124
2016-06-07T03:20:14.818Z,136
2016-06-07T03:21:14.790Z,144
2016-06-07T03:22:15.574Z,156
2016-06-07T03:23:14.748Z,164
2016-06-07T03:24:14.735Z,176
2016-06-07T03:25:14.738Z,188
2016-06-07T03:26:14.725Z,200
2016-06-07T03:27:14.712Z,208
2016-06-07T03:28:14.684Z,224
2016-06-07T03:29:14.686Z,240
2016-06-07T03:30:14.720Z,252
2016-06-07T03:31:14.660Z,264
2016-06-07T03:32:14.663Z,280
2016-06-07T03:33:14.650Z,296
2016-06-07T03:34:14.637Z,312
2016-06-07T03:35:14.623Z,328
2016-06-07T03:36:15.970Z,344
2016-06-07T03:37:14.895Z,360
2016-06-07T03:38:14.585Z,376
2016-06-07T03:39:14.572Z,392
2016-06-07T03:40:14.559Z,408
2016-06-07T03:41:14.562Z,424
2016-06-07T03:42:14.533Z,440
2016-06-07T03:43:14.583Z,456
2016-06-07T03:44:14.508Z,468
2016-06-07T03:45:14.494Z,480
2016-06-07T03:46:14.497Z,500
2016-06-07T03:47:14.485Z,516
2016-06-07T03:48:14.487Z,528
2016-06-07T03:49:14.458Z,540
2016-06-07T03:50:14.446Z,556
2016-06-07T03:51:14.496Z,568
2016-06-07T03:52:15.654Z,584
2016-06-07T03:53:14.422Z,600
2016-06-07T03:54:14.254Z,612
2016-06-07T03:55:14.459Z,628
2016-06-07T03:56:14.384Z,644
2016-06-07T03:57:14.370Z,660
2016-06-07T03:58:14.373Z,672
2016-06-07T03:59:14.360Z,680
2016-06-07T04:00:14.348Z,692
2016-06-07T04:01:14.335Z,704
2016-06-07T04:02:14.353Z,712
2016-06-07T04:03:14.309Z,728
2016-06-07T04:04:14.295Z,740
2016-06-07T04:05:14.298Z,756
2016-06-07T04:06:14.645Z,772
2016-06-07T04:07:15.054Z,792
2016-06-07T04:08:14.275Z,804
2016-06-07T04:09:14.262Z,824
2016-06-07T04:10:14.234Z,836
2016-06-07T04:11:14.220Z,856
2016-06-07T04:12:14.208Z,868
2016-06-07T04:13:14.039Z,880
2016-06-07T04:14:14.198Z,892
2016-06-07T04:15:14.028Z,896
2016-06-07T04:16:14.015Z,904
2016-06-07T04:17:14.159Z,916
2016-06-07T04:18:14.162Z,924
2016-06-07T04:19:14.164Z,940
2016-06-07T04:20:13.963Z,948
2016-06-07T04:21:14.122Z,956
2016-06-07T04:22:15.422Z,964
2016-06-07T04:23:14.144Z,976
2016-06-07T04:24:14.085Z,992
2016-06-07T04:25:14.071Z,1012
2016-06-07T04:26:14.057Z,1032
2016-06-07T04:27:14.061Z,1052
2016-06-07T04:28:14.048Z,1072
2016-06-07T04:29:14.035Z,1096
2016-06-07T04:30:14.021Z,1124
2016-06-07T04:31:14.025Z,1144
2016-06-07T04:32:14.012Z,1172
2016-06-07T04:33:13.983Z,1200
2016-06-07T04:34:13.987Z,1228
2016-06-07T04:35:13.972Z,1256
2016-06-07T04:36:13.960Z,1288
2016-06-07T04:37:14.587Z,1332
2016-06-07T04:38:13.934Z,1368
2016-06-07T04:39:13.764Z,1408
2016-06-07T04:40:13.924Z,1452
2016-06-07T04:41:13.911Z,1492
2016-06-07T04:42:13.898Z,1528
2016-06-07T04:43:13.885Z,1560
2016-06-07T04:44:13.873Z,1588
2016-06-07T04:45:13.858Z,1616
2016-06-07T04:46:13.846Z,1644
2016-06-07T04:47:13.833Z,1664
2016-06-07T04:48:13.836Z,1688
2016-06-07T04:49:13.823Z,1708
2016-06-07T04:50:13.825Z,1736
2016-06-07T04:51:13.797Z,1772
2016-06-07T04:52:14.362Z,1816
2016-06-07T04:53:13.630Z,1852
2016-06-07T04:54:13.774Z,1888
2016-06-07T04:55:13.449Z,1924
2016-06-07T04:56:14.404Z,1956
2016-06-07T04:57:13.735Z,1980
2016-06-07T04:58:13.566Z,2008
2016-06-07T04:59:13.710Z,2036
2016-06-07T05:00:13.712Z,2064
2016-06-07T05:01:13.543Z,2088
2016-06-07T05:02:13.686Z,2120
2016-06-07T05:03:13.689Z,2148
2016-06-07T05:04:13.660Z,2172
2016-06-07T05:05:13.648Z,2204
2016-06-07T05:06:13.651Z,2228
2016-06-07T05:07:13.793Z,2248
2016-06-07T05:08:13.703Z,2268
2016-06-07T05:09:13.611Z,2284
2016-06-07T05:10:13.598Z,2296
2016-06-07T05:11:13.429Z,2300
2016-06-07T05:12:13.588Z,2312
2016-06-07T05:13:13.575Z,2316
2016-06-07T05:14:13.562Z,2320
2016-06-07T05:15:13.409Z,2324
2016-06-07T05:16:13.552Z,2320
2016-06-07T05:17:13.522Z,2324
2016-06-07T05:18:13.558Z,2328
2016-06-07T05:19:13.513Z,2332
2016-06-07T05:20:13.703Z,2328
2016-06-07T05:21:13.502Z,2336
2016-06-07T05:22:13.897Z,2352
2016-06-07T05:23:13.477Z,2368
2016-06-07T05:24:13.464Z,2388
2016-06-07T05:25:13.591Z,2416
2016-06-07T05:26:13.454Z,2476
2016-06-07T05:27:13.441Z,2584
2016-06-07T05:28:13.460Z,2692
2016-06-07T05:29:13.446Z,2824
2016-06-07T05:30:13.401Z,2980
2016-06-07T05:31:13.389Z,3144
2016-06-07T05:32:13.376Z,3296
2016-06-07T05:33:13.379Z,3428
2016-06-07T05:34:13.210Z,3504
2016-06-07T05:35:13.401Z,3532
2016-06-07T05:36:13.340Z,3540
2016-06-07T05:37:13.358Z,3544
2016-06-07T05:38:13.174Z,3556
2016-06-07T05:39:13.317Z,3612
2016-06-07T05:40:13.351Z,3692
2016-06-07T05:41:13.306Z,3780
2016-06-07T05:42:14.215Z,3868
2016-06-07T05:43:13.281Z,3896
2016-06-07T05:44:13.284Z,3860
2016-06-07T05:45:13.255Z,3816
2016-06-07T05:46:13.273Z,3768
2016-06-07T05:47:13.088Z,3720
2016-06-07T05:48:13.231Z,3672
2016-06-07T05:49:13.219Z,3616
2016-06-07T05:50:13.221Z,3568
2016-06-07T05:51:13.208Z,3536
2016-06-07T05:52:13.055Z,3500
2016-06-07T05:53:13.199Z,3452
2016-06-07T05:54:13.170Z,3372
2016-06-07T05:55:13.172Z,3272
2016-06-07T05:56:13.160Z,3176
2016-06-07T05:57:13.147Z,3092
2016-06-07T05:58:12.994Z,3028
2016-06-07T05:59:12.996Z,2968
2016-06-07T06:00:13.138Z,2928
2016-06-07T06:01:13.111Z,2916
2016-06-07T06:02:13.113Z,2948
2016-06-07T06:03:13.101Z,2976
2016-06-07T06:04:13.087Z,2984
2016-06-07T06:05:13.074Z,2988
2016-06-07T06:06:13.062Z,2996
2016-06-07T06:07:13.908Z,3036
2016-06-07T06:08:14.145Z,3096
2016-06-07T06:09:13.054Z,3184
2016-06-07T06:10:13.041Z,3296
2016-06-07T06:11:13.028Z,3388
2016-06-07T06:12:13.015Z,3468
2016-06-07T06:13:13.018Z,3552
2016-06-07T06:14:13.005Z,3544
2016-06-07T06:15:12.992Z,4824
2016-06-07T06:16:12.994Z,5612
2016-06-07T06:17:12.982Z,5404
2016-06-07T06:18:12.984Z,4248
2016-06-07T06:19:12.972Z,4996
2016-06-07T06:20:12.942Z,4460
2016-06-07T06:21:12.930Z,3300
2016-06-07T06:22:13.292Z,3188
2016-06-07T06:23:14.436Z,3276
2016-06-07T06:24:12.922Z,3380
2016-06-07T06:25:12.910Z,3508
2016-06-07T06:26:12.897Z,3600
2016-06-07T06:27:12.727Z,3632
2016-06-07T06:28:12.871Z,3668
2016-06-07T06:29:12.873Z,3672
2016-06-07T06:30:12.861Z,3708
2016-06-07T06:31:12.707Z,3792
2016-06-07T06:32:12.865Z,3892
2016-06-07T06:33:12.838Z,3936
2016-06-07T06:34:12.840Z,3984
2016-06-07T06:35:12.811Z,4032
2016-06-07T06:36:12.798Z,4076
2016-06-07T06:37:12.692Z,4128
2016-06-07T06:38:12.788Z,4164
2016-06-07T06:39:12.775Z,4188
2016-06-07T06:40:12.621Z,4232
2016-06-07T06:41:12.780Z,4260
2016-06-07T06:42:12.768Z,4252
2016-06-07T06:43:12.755Z,4340
2016-06-07T06:44:12.757Z,4472
2016-06-07T06:45:12.728Z,9056
2016-06-07T06:46:12.732Z,16216
2016-06-07T06:47:12.562Z,20064
2016-06-07T06:48:12.705Z,21216
2016-06-07T06:49:12.709Z,21888
2016-06-07T06:50:12.695Z,21344
2016-06-07T06:51:13.151Z,20256
2016-06-07T06:52:12.716Z,19264
2016-06-07T06:53:12.689Z,15200
2016-06-07T06:54:12.659Z,10452
2016-06-07T06:55:12.661Z,5420
2016-06-07T06:56:12.650Z,4628
2016-06-07T06:57:12.652Z,4568
2016-06-07T06:58:12.670Z,4552
2016-06-07T06:59:12.626Z,4556
2016-06-07T07:00:12.612Z,4556
2016-06-07T07:01:12.616Z,4576
2016-06-07T07:02:12.619Z,4600
2016-06-07T07:03:12.605Z,4620
2016-06-07T07:04:12.608Z,4640
2016-06-07T07:05:12.596Z,4696
2016-06-07T07:06:12.582Z,4756
2016-06-07T07:07:12.429Z,4796
2016-06-07T07:08:12.946Z,4860
2016-06-07T07:09:12.543Z,4884
2016-06-07T07:10:12.546Z,4884
2016-06-07T07:11:12.533Z,5504
2016-06-07T07:12:12.536Z,10740
2016-06-07T07:13:12.523Z,17952
2016-06-07T07:14:12.526Z,26272
2016-06-07T07:15:12.512Z,32928
2016-06-07T07:16:12.515Z,33920
2016-06-07T07:17:12.518Z,34528
2016-06-07T07:18:12.505Z,36192
2016-06-07T07:19:12.492Z,38464
2016-06-07T07:20:12.697Z,38400
2016-06-07T07:21:12.482Z,36480
2016-06-07T07:22:12.766Z,35456
2016-06-07T07:23:12.658Z,35008
2016-06-07T07:24:12.475Z,33920
2016-06-07T07:25:12.461Z,33696
2016-06-07T07:26:12.464Z,29664
2016-06-07T07:27:12.451Z,30976
2016-06-07T07:28:12.454Z,37664
2016-06-07T07:29:12.300Z,36736
2016-06-07T07:30:12.444Z,31520
2016-06-07T07:31:12.446Z,22176
2016-06-07T07:32:12.449Z,10420
2016-06-07T07:33:12.452Z,5848
2016-06-07T07:34:12.439Z,9724
2016-06-07T07:35:12.285Z,21536
2016-06-07T07:36:12.429Z,33888
2016-06-07T07:37:13.416Z,38240
2016-06-07T07:38:12.277Z,37696
2016-06-07T07:39:12.264Z,38624
2016-06-07T07:40:12.423Z,40544
2016-06-07T07:41:12.427Z,41120
2016-06-07T07:42:12.429Z,40800
2016-06-07T07:43:12.416Z,40704
2016-06-07T07:44:12.418Z,40992
2016-06-07T07:45:12.406Z,40992
2016-06-07T07:46:12.408Z,39616
2016-06-07T07:47:12.412Z,38784
2016-06-07T07:48:12.429Z,40736
2016-06-07T07:49:12.416Z,42432
2016-06-07T07:50:12.403Z,44256
2016-06-07T07:51:12.250Z,42912
2016-06-07T07:52:13.644Z,41792
2016-06-07T07:53:12.411Z,42048
2016-06-07T07:54:12.399Z,43040
2016-06-07T07:55:12.402Z,43392
2016-06-07T07:56:12.404Z,44352
2016-06-07T07:57:12.407Z,46528
2016-06-07T07:58:12.410Z,47648
2016-06-07T07:59:12.413Z,46528
2016-06-07T08:00:12.415Z,43968
2016-06-07T08:01:12.402Z,42560
2016-06-07T08:02:12.421Z,43232
2016-06-07T08:03:12.407Z,44896
2016-06-07T08:04:12.410Z,44928
2016-06-07T08:05:12.412Z,44224
2016-06-07T08:06:12.415Z,45152
2016-06-07T08:07:12.310Z,46400
2016-06-07T08:08:12.437Z,46688
2016-06-07T08:09:12.424Z,46016
2016-06-07T08:10:12.426Z,46656
2016-06-07T08:11:12.413Z,48352
2016-06-07T08:12:12.432Z,52192
2016-06-07T08:13:12.418Z,55008
2016-06-07T08:14:12.421Z,56416
2016-06-07T08:15:12.423Z,54048
2016-06-07T08:16:12.426Z,54368
2016-06-07T08:17:12.429Z,51776
2016-06-07T08:18:12.464Z,48704
2016-06-07T08:19:12.435Z,44512
2016-06-07T08:20:12.281Z,37088
2016-06-07T08:21:12.439Z,35136
2016-06-07T08:22:12.474Z,36832
2016-06-07T08:23:12.321Z,28288
2016-06-07T08:24:12.448Z,28096
2016-06-07T08:25:12.450Z,29760
2016-06-07T08:26:12.281Z,30528
2016-06-07T08:27:12.441Z,31200
2016-06-07T08:28:12.443Z,34400
2016-06-07T08:29:12.447Z,38432
2016-06-07T08:30:12.449Z,22304
2016-06-07T08:31:12.452Z,32576
2016-06-07T08:32:12.469Z,19968
2016-06-07T08:33:12.457Z,25024
2016-06-07T08:34:12.474Z,21696
2016-06-07T08:35:12.462Z,26624
2016-06-07T08:36:12.466Z,24448
2016-06-07T08:37:12.827Z,32992
2016-06-07T08:38:12.452Z,35360
2016-06-07T08:39:12.454Z,40288
2016-06-07T08:40:12.473Z,37600
2016-06-07T08:41:12.459Z,49024
2016-06-07T08:42:12.463Z,51136
2016-06-07T08:43:12.465Z,55488
2016-06-07T08:44:12.468Z,55968
2016-06-07T08:45:12.470Z,56608
2016-06-07T08:46:12.489Z,57152
2016-06-07T08:47:12.632Z,57152
2016-06-07T08:48:12.463Z,57952
2016-06-07T08:49:12.465Z,58592
2016-06-07T08:50:12.468Z,59712
2016-06-07T08:51:12.470Z,57536
2016-06-07T08:52:12.474Z,55744
2016-06-07T08:53:12.351Z,55040
2016-06-07T08:54:12.479Z,50048
2016-06-07T08:55:12.481Z,28192
2016-06-07T08:56:12.484Z,20096
2016-06-07T08:57:12.487Z,17576
2016-06-07T08:58:12.490Z,24736
2016-06-07T08:59:12.492Z,24704
2016-06-07T09:00:12.495Z,29504
2016-06-07T09:01:12.498Z,32960
2016-06-07T09:02:12.360Z,25440
2016-06-07T09:03:12.503Z,19616
2016-06-07T09:04:12.506Z,11060
2016-06-07T09:05:12.493Z,12228
2016-06-07T09:06:12.355Z,15956
2016-06-07T09:07:12.905Z,12520
2016-06-07T09:08:13.204Z,16032
2016-06-07T09:09:12.504Z,24000
2016-06-07T09:10:12.507Z,39200
2016-06-07T09:11:12.353Z,48736
2016-06-07T09:12:12.513Z,53568
2016-06-07T09:13:12.515Z,64000
2016-06-07T09:14:12.518Z,62976
2016-06-07T09:15:12.520Z,62336
2016-06-07T09:16:12.523Z,62784
2016-06-07T09:17:12.370Z,57760
2016-06-07T09:18:12.512Z,61632
2016-06-07T09:19:12.390Z,61632
2016-06-07T09:20:12.721Z,61280
2016-06-07T09:21:12.520Z,62688
2016-06-07T09:22:12.524Z,64224
2016-06-07T09:23:12.573Z,65664
2016-06-07T09:24:12.528Z,64448
2016-06-07T09:25:12.562Z,61280
2016-06-07T09:26:12.550Z,68480
2016-06-07T09:27:12.537Z,70080
2016-06-07T09:28:12.556Z,69888
2016-06-07T09:29:12.542Z,69152
2016-06-07T09:30:12.560Z,60352
2016-06-07T09:31:12.578Z,71072
2016-06-07T09:32:12.567Z,74912
2016-06-07T09:33:12.413Z,76000
2016-06-07T09:34:12.572Z,75008
2016-06-07T09:35:12.590Z,70240
2016-06-07T09:36:12.577Z,64608
2016-06-07T09:37:12.563Z,63808
2016-06-07T09:38:12.441Z,65664
2016-06-07T09:39:12.585Z,37952
2016-06-07T09:40:12.587Z,71328
2016-06-07T09:41:12.590Z,72672
2016-06-07T09:42:12.608Z,73152
2016-06-07T09:43:12.596Z,68448
2016-06-07T09:44:12.613Z,64544
2016-06-07T09:45:12.601Z,74496
2016-06-07T09:46:12.634Z,75424
2016-06-07T09:47:12.466Z,75808
2016-06-07T09:48:12.624Z,75776
2016-06-07T09:49:12.627Z,76672
2016-06-07T09:50:12.630Z,77664
2016-06-07T09:51:12.632Z,78400
2016-06-07T09:52:12.635Z,79360
2016-06-07T09:53:12.654Z,79488
2016-06-07T09:54:12.656Z,78080
2016-06-07T09:55:12.659Z,75360
2016-06-07T09:56:12.506Z,71712
2016-06-07T09:57:12.664Z,69504
2016-06-07T09:58:12.667Z,69408
2016-06-07T09:59:12.670Z,68192
2016-06-07T10:00:12.672Z,70720
2016-06-07T10:01:12.691Z,77376
2016-06-07T10:02:12.694Z,76224
2016-06-07T10:03:12.680Z,82304
2016-06-07T10:04:12.699Z,84480
2016-06-07T10:05:12.702Z,84640
2016-06-07T10:06:12.705Z,82688
2016-06-07T10:07:12.550Z,78368
2016-06-07T10:08:13.178Z,75168
2016-06-07T10:09:12.572Z,71808
2016-06-07T10:10:12.731Z,30304
2016-06-07T10:11:12.749Z,16608
2016-06-07T10:12:12.735Z,19104
2016-06-07T10:13:12.754Z,22400
2016-06-07T10:14:12.757Z,32320
2016-06-07T10:15:12.744Z,42624
2016-06-07T10:16:12.763Z,47072
2016-06-07T10:17:12.781Z,47520
2016-06-07T10:18:12.752Z,51072
2016-06-07T10:19:12.771Z,56064
2016-06-07T10:20:12.775Z,65984
2016-06-07T10:21:12.777Z,74656
2016-06-07T10:22:12.779Z,82304
2016-06-07T10:23:12.814Z,87360
2016-06-07T10:24:12.816Z,91232
2016-06-07T10:25:12.787Z,90560
2016-06-07T10:26:12.807Z,88000
2016-06-07T10:27:12.652Z,84960
2016-06-07T10:28:12.812Z,81920
2016-06-07T10:29:12.829Z,78880
2016-06-07T10:30:13.910Z,78144
2016-06-07T10:31:12.819Z,79136
2016-06-07T10:32:12.823Z,82048
2016-06-07T10:33:12.684Z,64768
2016-06-07T10:34:12.687Z,64256
2016-06-07T10:35:12.846Z,73984
2016-06-07T10:36:12.864Z,77824
2016-06-07T10:37:12.851Z,80096
2016-06-07T10:38:13.931Z,80864
2016-06-07T10:39:12.748Z,79840
2016-06-07T10:40:12.719Z,80096
2016-06-07T10:41:12.862Z,82304
2016-06-07T10:42:12.896Z,85280
2016-06-07T10:43:12.883Z,87712
2016-06-07T10:44:12.886Z,89728
2016-06-07T10:45:12.889Z,90976
2016-06-07T10:46:12.891Z,90176
2016-06-07T10:47:12.909Z,86656
2016-06-07T10:48:12.911Z,82560
2016-06-07T10:49:12.759Z,77824
2016-06-07T10:50:12.917Z,75744
2016-06-07T10:51:12.780Z,74912
2016-06-07T10:52:12.938Z,76192
2016-06-07T10:53:13.082Z,80544
2016-06-07T10:54:13.318Z,84896
2016-06-07T10:55:12.959Z,88672
2016-06-07T10:56:12.977Z,90720
2016-06-07T10:57:12.994Z,91296
2016-06-07T10:58:13.028Z,89280
2016-06-07T10:59:13.030Z,88736
2016-06-07T11:00:13.056Z,85664
2016-06-07T11:01:13.078Z,84096
2016-06-07T11:02:13.086Z,84000
2016-06-07T11:03:13.111Z,86432
2016-06-07T11:04:13.119Z,91040
2016-06-07T11:05:13.108Z,94272
2016-06-07T11:06:13.112Z,93664
2016-06-07T11:07:13.117Z,92576
2016-06-07T11:08:12.841Z,92736
2016-06-07T11:09:13.018Z,88352
2016-06-07T11:10:13.146Z,84512
2016-06-07T11:11:13.149Z,79040
2016-06-07T11:12:13.169Z,75872
2016-06-07T11:13:13.173Z,75456
2016-06-07T11:14:13.175Z,76928
2016-06-07T11:15:13.163Z,78848
2016-06-07T11:16:13.182Z,83840
2016-06-07T11:17:13.185Z,88512
2016-06-07T11:18:13.219Z,91456
2016-06-07T11:19:13.206Z,94944
2016-06-07T11:20:13.412Z,95712
2016-06-07T11:21:13.212Z,96480
2016-06-07T11:22:13.230Z,94528
2016-06-07T11:23:13.577Z,92896
2016-06-07T11:24:13.157Z,92544
2016-06-07T11:25:13.238Z,89824
2016-06-07T11:26:13.241Z,89824
2016-06-07T11:27:13.258Z,87648
2016-06-07T11:28:13.262Z,86432
2016-06-07T11:29:13.280Z,86272
2016-06-07T11:30:13.267Z,86848
2016-06-07T11:31:13.269Z,87488
2016-06-07T11:32:13.133Z,88704
2016-06-07T11:33:13.291Z,91040
2016-06-07T11:34:13.294Z,93824
2016-06-07T11:35:13.359Z,95872
2016-06-07T11:36:13.315Z,98784
2016-06-07T11:37:13.317Z,101088
2016-06-07T11:38:14.163Z,102176
2016-06-07T11:39:13.979Z,102720
2016-06-07T11:40:13.340Z,102144
2016-06-07T11:41:13.343Z,99552
2016-06-07T11:42:13.378Z,95712
2016-06-07T11:43:13.506Z,92832
2016-06-07T11:44:13.368Z,86848
2016-06-07T11:45:13.401Z,80448
2016-06-07T11:46:13.373Z,76928
2016-06-07T11:47:13.297Z,74752
2016-06-07T11:48:13.394Z,74656
2016-06-07T11:49:13.412Z,73376
2016-06-07T11:50:13.446Z,74848
2016-06-07T11:51:13.512Z,79616
2016-06-07T11:52:13.451Z,82560
2016-06-07T11:53:13.439Z,85632
2016-06-07T11:54:13.925Z,85696
2016-06-07T11:55:13.491Z,84864
2016-06-07T11:56:13.477Z,81792
2016-06-07T11:57:13.340Z,80800
2016-06-07T11:58:13.499Z,76800
2016-06-07T11:59:13.486Z,73312
2016-06-07T12:00:13.520Z,71648
2016-06-07T12:01:13.366Z,72160
2016-06-07T12:02:13.494Z,69696
2016-06-07T12:03:13.496Z,71968
2016-06-07T12:04:13.405Z,59936
2016-06-07T12:05:13.502Z,60352
2016-06-07T12:06:13.505Z,67680
2016-06-07T12:07:13.524Z,76864
2016-06-07T12:08:13.573Z,81024
2016-06-07T12:09:13.388Z,83008
2016-06-07T12:10:13.531Z,82464
2016-06-07T12:11:13.534Z,79392
2016-06-07T12:12:13.614Z,82144
2016-06-07T12:13:13.554Z,82848
2016-06-07T12:14:13.557Z,83840
2016-06-07T12:15:13.576Z,86144
2016-06-07T12:16:13.579Z,88032
2016-06-07T12:17:13.581Z,88800
2016-06-07T12:18:13.600Z,87392
2016-06-07T12:19:13.603Z,85344
2016-06-07T12:20:13.589Z,78592
2016-06-07T12:21:13.592Z,74560
2016-06-07T12:22:13.611Z,55392
2016-06-07T12:23:13.614Z,64384
2016-06-07T12:24:13.475Z,67296
2016-06-07T12:25:13.619Z,73344
2016-06-07T12:26:13.637Z,79584
2016-06-07T12:27:13.624Z,86304
2016-06-07T12:28:13.642Z,67968
2016-06-07T12:29:13.660Z,71712
2016-06-07T12:30:13.647Z,97824
2016-06-07T12:31:13.650Z,95328
2016-06-07T12:32:13.669Z,42112
2016-06-07T12:33:13.671Z,22656
2016-06-07T12:34:13.674Z,19456
2016-06-07T12:35:13.676Z,18592
2016-06-07T12:36:13.679Z,18560
2016-06-07T12:37:13.697Z,18336
2016-06-07T12:38:13.981Z,18208
2016-06-07T12:39:13.577Z,19232
2016-06-07T12:40:13.721Z,19040
2016-06-07T12:41:13.708Z,12920
2016-06-07T12:42:13.743Z,10828
2016-06-07T12:43:13.713Z,9968
2016-06-07T12:44:13.716Z,12068
2016-06-07T12:45:13.718Z,17408
2016-06-07T12:46:13.721Z,21824
2016-06-07T12:47:13.740Z,27360
2016-06-07T12:48:13.431Z,18848
2016-06-07T12:49:13.746Z,17568
2016-06-07T12:50:13.779Z,16352
2016-06-07T12:51:13.751Z,14868
2016-06-07T12:52:13.770Z,13192
2016-06-07T12:53:14.303Z,10480
2016-06-07T12:54:13.728Z,8124
2016-06-07T12:55:13.761Z,6592
2016-06-07T12:56:13.764Z,5912
2016-06-07T12:57:13.767Z,5376
2016-06-07T12:58:13.770Z,4736
2016-06-07T12:59:13.616Z,4108
2016-06-07T13:00:13.775Z,3508
2016-06-07T13:01:13.761Z,3028
2016-06-07T13:02:13.780Z,2676
2016-06-07T13:03:13.767Z,2436
2016-06-07T13:04:13.786Z,2264
2016-06-07T13:05:13.617Z,2080
2016-06-07T13:06:13.791Z,1880
2016-06-07T13:07:13.777Z,1688
2016-06-07T13:08:13.781Z,1524
2016-06-07T13:09:13.799Z,1400
2016-06-07T13:10:13.786Z,1304
2016-06-07T13:11:13.773Z,1240
2016-06-07T13:12:13.823Z,1196
2016-06-07T13:13:13.779Z,1176
2016-06-07T13:14:13.625Z,1164
2016-06-07T13:15:13.784Z,1168
2016-06-07T13:16:13.787Z,1168
2016-06-07T13:17:13.789Z,1164
2016-06-07T13:18:13.776Z,1144
2016-06-07T13:19:13.779Z,1108
2016-06-07T13:20:13.845Z,1088
2016-06-07T13:21:13.769Z,1072
2016-06-07T13:22:13.772Z,1056
2016-06-07T13:23:13.775Z,1028
2016-06-07T13:24:14.027Z,1008
2016-06-07T13:25:13.811Z,976
2016-06-07T13:26:13.750Z,944
2016-06-07T13:27:13.754Z,908